Terminal Aerodrome Forecast
Issued by NWS

Home | Current Version | Previous Version | Graphics & Text | Print | Product List | Glossary On
Versions: 1 2 3 4 5 6 7 8 9 10 11 12 13 14 15 16
000
FTUS43 KIWX 180529
TAFSBN
TAF
KSBN 180529Z 1806/1906 03002KT P6SM SCT030
     FM181500 11010KT P6SM OVC060
     FM182100 06008KT 4SM -RA BR OVC010
     FM190100 02008KT 2SM -SN BR OVC008=

USA.gov is the U.S. government's official web portal to all federal, state and local government web resources and services.